sensor_id;sensor_type;location;lat;lon;timestamp;P1;durP1;ratioP1;P2;durP2;ratioP2
22939;SDS011;11636;52.086;5.090;2022-09-27T00:01:52;5.15;;;1.35;;
22939;SDS011;11636;52.086;5.090;2022-09-27T00:04:26;4.78;;;0.70;;
22939;SDS011;11636;52.086;5.090;2022-09-27T00:07:00;4.03;;;0.63;;
22939;SDS011;11636;52.086;5.090;2022-09-27T00:09:34;3.13;;;1.00;;
22939;SDS011;11636;52.086;5.090;2022-09-27T00:12:01;4.47;;;0.50;;
22939;SDS011;11636;52.086;5.090;2022-09-27T00:14:35;4.75;;;0.73;;
22939;SDS011;11636;52.086;5.090;2022-09-27T00:17:01;2.05;;;0.50;;
22939;SDS011;11636;52.086;5.090;2022-09-27T00:19:35;1.77;;;0.30;;
22939;SDS011;11636;52.086;5.090;2022-09-27T00:22:01;1.73;;;0.40;;
22939;SDS011;11636;52.086;5.090;2022-09-27T00:24:41;2.70;;;0.50;;
22939;SDS011;11636;52.086;5.090;2022-09-27T00:27:15;2.30;;;0.45;;
22939;SDS011;11636;52.086;5.090;2022-09-27T00:29:48;3.25;;;0.40;;
22939;SDS011;11636;52.086;5.090;2022-09-27T00:32:22;4.05;;;0.60;;
22939;SDS011;11636;52.086;5.090;2022-09-27T00:35:02;2.10;;;0.45;;
22939;SDS011;11636;52.086;5.090;2022-09-27T00:37:29;3.30;;;0.60;;
22939;SDS011;11636;52.086;5.090;2022-09-27T00:40:03;1.85;;;0.50;;
22939;SDS011;11636;52.086;5.090;2022-09-27T00:42:30;2.25;;;0.38;;
22939;SDS011;11636;52.086;5.090;2022-09-27T00:45:22;3.33;;;0.55;;
22939;SDS011;11636;52.086;5.090;2022-09-27T00:47:53;2.22;;;0.38;;
22939;SDS011;11636;52.086;5.090;2022-09-27T00:53:11;4.65;;;0.75;;
22939;SDS011;11636;52.086;5.090;2022-09-27T00:55:53;2.03;;;0.40;;
22939;SDS011;11636;52.086;5.090;2022-09-27T00:58:29;2.35;;;0.50;;
22939;SDS011;11636;52.086;5.090;2022-09-27T01:01:06;1.95;;;0.50;;
22939;SDS011;11636;52.086;5.090;2022-09-27T01:03:47;5.65;;;0.82;;
22939;SDS011;11636;52.086;5.090;2022-09-27T01:06:23;4.25;;;0.88;;
22939;SDS011;11636;52.086;5.090;2022-09-27T01:08:50;1.95;;;0.50;;
22939;SDS011;11636;52.086;5.090;2022-09-27T01:28:29;2.97;;;0.50;;
22939;SDS011;11636;52.086;5.090;2022-09-27T01:40:14;3.88;;;0.55;;
22939;SDS011;11636;52.086;5.090;2022-09-27T01:42:57;1.33;;;0.30;;
22939;SDS011;11636;52.086;5.090;2022-09-27T01:45:41;2.60;;;0.50;;
22939;SDS011;11636;52.086;5.090;2022-09-27T01:48:25;3.22;;;0.50;;
22939;SDS011;11636;52.086;5.090;2022-09-27T01:51:07;1.30;;;0.40;;
22939;SDS011;11636;52.086;5.090;2022-09-27T01:53:46;1.48;;;0.30;;
22939;SDS011;11636;52.086;5.090;2022-09-27T01:56:18;2.58;;;0.50;;
22939;SDS011;11636;52.086;5.090;2022-09-27T02:01:36;4.28;;;0.55;;
22939;SDS011;11636;52.086;5.090;2022-09-27T02:04:12;3.42;;;0.80;;
22939;SDS011;11636;52.086;5.090;2022-09-27T02:06:43;2.72;;;0.45;;
22939;SDS011;11636;52.086;5.090;2022-09-27T02:09:25;2.78;;;0.57;;
22939;SDS011;11636;52.086;5.090;2022-09-27T02:11:57;2.40;;;0.50;;
22939;SDS011;11636;52.086;5.090;2022-09-27T02:14:54;2.70;;;0.60;;
22939;SDS011;11636;52.086;5.090;2022-09-27T02:25:46;2.00;;;0.50;;
22939;SDS011;11636;52.086;5.090;2022-09-27T02:28:28;2.65;;;0.50;;
22939;SDS011;11636;52.086;5.090;2022-09-27T02:31:19;4.43;;;0.80;;
22939;SDS011;11636;52.086;5.090;2022-09-27T02:33:57;5.47;;;1.02;;
22939;SDS011;11636;52.086;5.090;2022-09-27T02:36:31;3.75;;;1.00;;
22939;SDS011;11636;52.086;5.090;2022-09-27T02:39:05;2.95;;;0.70;;
22939;SDS011;11636;52.086;5.090;2022-09-27T02:41:40;1.67;;;0.55;;
22939;SDS011;11636;52.086;5.090;2022-09-27T02:44:07;2.42;;;0.60;;
22939;SDS011;11636;52.086;5.090;2022-09-27T02:46:51;3.50;;;0.75;;
22939;SDS011;11636;52.086;5.090;2022-09-27T03:06:41;3.63;;;0.77;;
22939;SDS011;11636;52.086;5.090;2022-09-27T03:09:18;6.72;;;1.00;;
22939;SDS011;11636;52.086;5.090;2022-09-27T03:11:53;5.13;;;0.82;;
22939;SDS011;11636;52.086;5.090;2022-09-27T03:14:20;4.97;;;0.90;;
22939;SDS011;11636;52.086;5.090;2022-09-27T03:16:47;6.38;;;1.10;;
22939;SDS011;11636;52.086;5.090;2022-09-27T03:19:20;3.17;;;0.80;;
22939;SDS011;11636;52.086;5.090;2022-09-27T03:21:47;5.13;;;1.20;;
22939;SDS011;11636;52.086;5.090;2022-09-27T03:24:20;3.38;;;0.80;;
22939;SDS011;11636;52.086;5.090;2022-09-27T03:26:53;4.40;;;0.75;;
22939;SDS011;11636;52.086;5.090;2022-09-27T03:29:20;3.08;;;1.10;;
22939;SDS011;11636;52.086;5.090;2022-09-27T03:31:53;3.78;;;0.75;;
22939;SDS011;11636;52.086;5.090;2022-09-27T03:34:20;9.23;;;1.30;;
22939;SDS011;11636;52.086;5.090;2022-09-27T03:36:54;3.90;;;1.20;;
22939;SDS011;11636;52.086;5.090;2022-09-27T03:39:21;4.88;;;0.90;;
22939;SDS011;11636;52.086;5.090;2022-09-27T03:41:54;3.25;;;0.47;;
22939;SDS011;11636;52.086;5.090;2022-09-27T03:44:21;3.83;;;0.70;;
22939;SDS011;11636;52.086;5.090;2022-09-27T03:46:55;3.28;;;0.93;;
22939;SDS011;11636;52.086;5.090;2022-09-27T03:49:29;2.42;;;0.50;;
22939;SDS011;11636;52.086;5.090;2022-09-27T03:51:57;2.50;;;0.60;;
22939;SDS011;11636;52.086;5.090;2022-09-27T03:54:31;3.50;;;0.57;;
22939;SDS011;11636;52.086;5.090;2022-09-27T03:57:05;2.63;;;0.50;;
22939;SDS011;11636;52.086;5.090;2022-09-27T03:59:32;2.70;;;0.50;;
22939;SDS011;11636;52.086;5.090;2022-09-27T04:01:59;3.60;;;0.70;;
22939;SDS011;11636;52.086;5.090;2022-09-27T04:04:32;3.08;;;0.52;;
22939;SDS011;11636;52.086;5.090;2022-09-27T04:07:06;3.15;;;0.50;;
22939;SDS011;11636;52.086;5.090;2022-09-27T04:09:40;3.95;;;1.02;;
22939;SDS011;11636;52.086;5.090;2022-09-27T04:12:10;3.25;;;0.50;;
22939;SDS011;11636;52.086;5.090;2022-09-27T04:14:44;4.30;;;0.77;;
22939;SDS011;11636;52.086;5.090;2022-09-27T04:17:11;3.53;;;0.93;;
22939;SDS011;11636;52.086;5.090;2022-09-27T04:19:44;4.90;;;1.42;;
22939;SDS011;11636;52.086;5.090;2022-09-27T04:22:17;6.45;;;1.08;;
22939;SDS011;11636;52.086;5.090;2022-09-27T04:24:44;4.70;;;1.02;;
22939;SDS011;11636;52.086;5.090;2022-09-27T04:27:17;5.88;;;1.00;;
22939;SDS011;11636;52.086;5.090;2022-09-27T04:29:50;6.72;;;0.88;;
22939;SDS011;11636;52.086;5.090;2022-09-27T04:32:24;5.25;;;0.98;;
22939;SDS011;11636;52.086;5.090;2022-09-27T04:34:59;6.07;;;0.60;;
22939;SDS011;11636;52.086;5.090;2022-09-27T04:37:51;3.30;;;0.60;;
22939;SDS011;11636;52.086;5.090;2022-09-27T04:40:18;3.15;;;0.68;;
22939;SDS011;11636;52.086;5.090;2022-09-27T04:42:47;4.40;;;0.80;;
22939;SDS011;11636;52.086;5.090;2022-09-27T04:45:21;5.10;;;0.70;;
22939;SDS011;11636;52.086;5.090;2022-09-27T04:47:54;4.78;;;0.85;;
22939;SDS011;11636;52.086;5.090;2022-09-27T04:50:27;6.25;;;0.90;;
22939;SDS011;11636;52.086;5.090;2022-09-27T04:53:02;4.60;;;0.75;;
22939;SDS011;11636;52.086;5.090;2022-09-27T04:55:36;7.75;;;1.25;;
22939;SDS011;11636;52.086;5.090;2022-09-27T04:58:10;4.10;;;0.88;;
22939;SDS011;11636;52.086;5.090;2022-09-27T05:00:43;4.70;;;0.77;;
22939;SDS011;11636;52.086;5.090;2022-09-27T05:03:19;4.53;;;0.80;;
22939;SDS011;11636;52.086;5.090;2022-09-27T05:05:53;4.75;;;0.63;;
22939;SDS011;11636;52.086;5.090;2022-09-27T05:08:27;4.78;;;0.80;;
22939;SDS011;11636;52.086;5.090;2022-09-27T05:10:54;7.97;;;1.30;;
22939;SDS011;11636;52.086;5.090;2022-09-27T05:13:28;7.88;;;1.20;;
22939;SDS011;11636;52.086;5.090;2022-09-27T05:16:00;8.15;;;1.50;;
22939;SDS011;11636;52.086;5.090;2022-09-27T05:18:34;4.55;;;1.00;;
22939;SDS011;11636;52.086;5.090;2022-09-27T05:21:01;4.97;;;0.90;;
22939;SDS011;11636;52.086;5.090;2022-09-27T05:23:28;6.68;;;1.30;;
22939;SDS011;11636;52.086;5.090;2022-09-27T05:26:04;5.70;;;1.05;;
22939;SDS011;11636;52.086;5.090;2022-09-27T05:28:38;3.60;;;1.20;;
22939;SDS011;11636;52.086;5.090;2022-09-27T05:31:08;5.53;;;1.83;;
22939;SDS011;11636;52.086;5.090;2022-09-27T05:33:43;6.25;;;1.33;;
22939;SDS011;11636;52.086;5.090;2022-09-27T05:36:10;6.07;;;1.50;;
22939;SDS011;11636;52.086;5.090;2022-09-27T05:38:44;5.50;;;1.20;;
22939;SDS011;11636;52.086;5.090;2022-09-27T05:41:19;3.80;;;0.80;;
22939;SDS011;11636;52.086;5.090;2022-09-27T05:44:06;5.15;;;0.88;;
22939;SDS011;11636;52.086;5.090;2022-09-27T05:46:39;4.22;;;0.80;;
22939;SDS011;11636;52.086;5.090;2022-09-27T05:49:12;4.88;;;1.10;;
22939;SDS011;11636;52.086;5.090;2022-09-27T05:51:45;4.78;;;0.90;;
22939;SDS011;11636;52.086;5.090;2022-09-27T05:54:19;5.32;;;1.23;;
22939;SDS011;11636;52.086;5.090;2022-09-27T05:56:55;5.78;;;1.00;;
22939;SDS011;11636;52.086;5.090;2022-09-27T05:59:32;6.47;;;1.30;;
22939;SDS011;11636;52.086;5.090;2022-09-27T06:01:59;6.38;;;1.35;;
22939;SDS011;11636;52.086;5.090;2022-09-27T06:04:33;5.75;;;1.10;;
22939;SDS011;11636;52.086;5.090;2022-09-27T06:07:00;9.15;;;1.30;;
22939;SDS011;11636;52.086;5.090;2022-09-27T06:09:27;6.45;;;0.90;;
22939;SDS011;11636;52.086;5.090;2022-09-27T06:12:00;4.65;;;0.85;;
22939;SDS011;11636;52.086;5.090;2022-09-27T06:14:27;5.38;;;1.00;;
22939;SDS011;11636;52.086;5.090;2022-09-27T06:17:00;3.75;;;0.60;;
22939;SDS011;11636;52.086;5.090;2022-09-27T06:19:27;3.63;;;0.90;;
22939;SDS011;11636;52.086;5.090;2022-09-27T06:22:01;4.00;;;0.95;;
22939;SDS011;11636;52.086;5.090;2022-09-27T06:24:28;3.90;;;0.75;;
22939;SDS011;11636;52.086;5.090;2022-09-27T06:27:01;3.78;;;1.05;;
22939;SDS011;11636;52.086;5.090;2022-09-27T06:29:34;2.55;;;0.60;;
22939;SDS011;11636;52.086;5.090;2022-09-27T06:32:08;2.47;;;0.60;;
22939;SDS011;11636;52.086;5.090;2022-09-27T06:34:36;3.85;;;0.75;;
22939;SDS011;11636;52.086;5.090;2022-09-27T06:37:09;3.88;;;0.85;;
22939;SDS011;11636;52.086;5.090;2022-09-27T06:39:43;4.97;;;0.82;;
22939;SDS011;11636;52.086;5.090;2022-09-27T06:42:17;4.85;;;0.65;;
22939;SDS011;11636;52.086;5.090;2022-09-27T06:44:51;4.03;;;0.90;;
22939;SDS011;11636;52.086;5.090;2022-09-27T06:47:19;3.70;;;0.90;;
22939;SDS011;11636;52.086;5.090;2022-09-27T06:49:52;4.75;;;0.90;;
22939;SDS011;11636;52.086;5.090;2022-09-27T06:52:25;2.25;;;0.60;;
22939;SDS011;11636;52.086;5.090;2022-09-27T06:54:58;3.03;;;0.60;;
22939;SDS011;11636;52.086;5.090;2022-09-27T06:57:26;2.80;;;0.60;;
22939;SDS011;11636;52.086;5.090;2022-09-27T07:00:18;2.00;;;0.50;;
22939;SDS011;11636;52.086;5.090;2022-09-27T07:02:55;7.13;;;0.80;;
22939;SDS011;11636;52.086;5.090;2022-09-27T07:05:32;5.68;;;1.02;;
22939;SDS011;11636;52.086;5.090;2022-09-27T07:07:59;4.25;;;1.08;;
22939;SDS011;11636;52.086;5.090;2022-09-27T07:10:34;3.45;;;0.63;;
22939;SDS011;11636;52.086;5.090;2022-09-27T07:13:09;3.20;;;0.73;;
22939;SDS011;11636;52.086;5.090;2022-09-27T07:15:43;3.42;;;0.70;;
22939;SDS011;11636;52.086;5.090;2022-09-27T07:18:16;2.13;;;0.60;;
22939;SDS011;11636;52.086;5.090;2022-09-27T07:20:49;5.57;;;1.10;;
22939;SDS011;11636;52.086;5.090;2022-09-27T07:23:16;7.82;;;1.27;;
22939;SDS011;11636;52.086;5.090;2022-09-27T07:25:43;6.45;;;1.23;;
22939;SDS011;11636;52.086;5.090;2022-09-27T07:28:17;4.95;;;0.98;;
22939;SDS011;11636;52.086;5.090;2022-09-27T07:30:54;7.72;;;0.93;;
22939;SDS011;11636;52.086;5.090;2022-09-27T07:33:29;4.18;;;0.77;;
22939;SDS011;11636;52.086;5.090;2022-09-27T07:36:09;2.80;;;0.70;;
22939;SDS011;11636;52.086;5.090;2022-09-27T07:38:36;6.45;;;0.90;;
22939;SDS011;11636;52.086;5.090;2022-09-27T07:41:10;5.43;;;0.77;;
22939;SDS011;11636;52.086;5.090;2022-09-27T07:43:42;4.15;;;0.60;;
22939;SDS011;11636;52.086;5.090;2022-09-27T07:46:16;6.72;;;1.20;;
22939;SDS011;11636;52.086;5.090;2022-09-27T07:48:50;4.13;;;0.73;;
22939;SDS011;11636;52.086;5.090;2022-09-27T07:51:23;5.35;;;1.40;;
22939;SDS011;11636;52.086;5.090;2022-09-27T07:53:56;7.15;;;1.10;;
22939;SDS011;11636;52.086;5.090;2022-09-27T07:56:34;5.22;;;0.95;;
22939;SDS011;11636;52.086;5.090;2022-09-27T07:59:00;3.70;;;0.82;;
22939;SDS011;11636;52.086;5.090;2022-09-27T08:01:34;5.40;;;1.30;;
22939;SDS011;11636;52.086;5.090;2022-09-27T08:04:01;7.43;;;1.27;;
22939;SDS011;11636;52.086;5.090;2022-09-27T08:06:28;8.38;;;1.23;;
22939;SDS011;11636;52.086;5.090;2022-09-27T08:09:04;6.05;;;1.63;;
22939;SDS011;11636;52.086;5.090;2022-09-27T08:11:37;4.55;;;0.90;;
22939;SDS011;11636;52.086;5.090;2022-09-27T08:14:10;6.28;;;0.90;;
22939;SDS011;11636;52.086;5.090;2022-09-27T08:16:42;5.57;;;0.80;;
22939;SDS011;11636;52.086;5.090;2022-09-27T08:19:09;5.95;;;0.88;;
22939;SDS011;11636;52.086;5.090;2022-09-27T08:21:43;6.57;;;0.80;;
22939;SDS011;11636;52.086;5.090;2022-09-27T08:24:23;5.80;;;0.70;;
22939;SDS011;11636;52.086;5.090;2022-09-27T08:26:50;5.93;;;0.82;;
22939;SDS011;11636;52.086;5.090;2022-09-27T08:29:23;5.60;;;0.80;;
22939;SDS011;11636;52.086;5.090;2022-09-27T08:31:50;4.95;;;0.82;;
22939;SDS011;11636;52.086;5.090;2022-09-27T08:34:30;7.57;;;0.80;;
22939;SDS011;11636;52.086;5.090;2022-09-27T08:37:03;9.23;;;1.30;;
22939;SDS011;11636;52.086;5.090;2022-09-27T08:39:31;5.20;;;0.82;;
22939;SDS011;11636;52.086;5.090;2022-09-27T08:42:07;6.28;;;0.70;;
22939;SDS011;11636;52.086;5.090;2022-09-27T08:45:10;6.75;;;1.00;;
22939;SDS011;11636;52.086;5.090;2022-09-27T08:47:52;5.63;;;0.70;;
22939;SDS011;11636;52.086;5.090;2022-09-27T08:50:34;4.93;;;0.93;;
22939;SDS011;11636;52.086;5.090;2022-09-27T08:56:06;6.00;;;1.13;;
22939;SDS011;11636;52.086;5.090;2022-09-27T08:58:42;3.17;;;0.52;;
22939;SDS011;11636;52.086;5.090;2022-09-27T09:01:21;3.45;;;0.50;;
22939;SDS011;11636;52.086;5.090;2022-09-27T09:03:55;4.22;;;0.70;;
22939;SDS011;11636;52.086;5.090;2022-09-27T09:06:38;5.25;;;0.60;;
22939;SDS011;11636;52.086;5.090;2022-09-27T09:09:32;3.50;;;0.60;;
22939;SDS011;11636;52.086;5.090;2022-09-27T09:25:06;2.63;;;0.70;;
22939;SDS011;11636;52.086;5.090;2022-09-27T09:30:45;2.75;;;0.80;;
22939;SDS011;11636;52.086;5.090;2022-09-27T09:33:38;4.63;;;0.70;;
22939;SDS011;11636;52.086;5.090;2022-09-27T09:36:29;3.47;;;0.73;;
22939;SDS011;11636;52.086;5.090;2022-09-27T09:39:04;3.95;;;0.57;;
22939;SDS011;11636;52.086;5.090;2022-09-27T09:42:03;3.30;;;0.60;;
22939;SDS011;11636;52.086;5.090;2022-09-27T09:44:48;3.00;;;0.50;;
22939;SDS011;11636;52.086;5.090;2022-09-27T09:50:17;5.35;;;0.70;;
22939;SDS011;11636;52.086;5.090;2022-09-27T09:52:58;4.22;;;0.57;;
22939;SDS011;11636;52.086;5.090;2022-09-27T09:55:37;4.15;;;0.60;;
22939;SDS011;11636;52.086;5.090;2022-09-27T10:00:48;3.42;;;0.60;;
22939;SDS011;11636;52.086;5.090;2022-09-27T10:03:24;3.78;;;0.60;;
22939;SDS011;11636;52.086;5.090;2022-09-27T10:05:50;3.03;;;0.55;;
22939;SDS011;11636;52.086;5.090;2022-09-27T10:08:19;4.93;;;0.70;;
22939;SDS011;11636;52.086;5.090;2022-09-27T10:10:53;4.22;;;0.60;;
22939;SDS011;11636;52.086;5.090;2022-09-27T10:13:29;5.18;;;0.77;;
22939;SDS011;11636;52.086;5.090;2022-09-27T10:16:08;3.30;;;0.60;;
22939;SDS011;11636;52.086;5.090;2022-09-27T10:18:38;5.63;;;0.90;;
22939;SDS011;11636;52.086;5.090;2022-09-27T10:26:45;5.13;;;1.55;;
22939;SDS011;11636;52.086;5.090;2022-09-27T10:31:49;5.35;;;0.60;;
22939;SDS011;11636;52.086;5.090;2022-09-27T10:34:19;5.88;;;0.60;;
22939;SDS011;11636;52.086;5.090;2022-09-27T10:39:44;4.35;;;0.80;;
22939;SDS011;11636;52.086;5.090;2022-09-27T10:47:52;4.38;;;0.82;;
22939;SDS011;11636;52.086;5.090;2022-09-27T10:50:28;5.10;;;1.10;;
22939;SDS011;11636;52.086;5.090;2022-09-27T10:53:16;5.72;;;0.93;;
22939;SDS011;11636;52.086;5.090;2022-09-27T10:55:52;5.38;;;1.00;;
22939;SDS011;11636;52.086;5.090;2022-09-27T11:01:06;3.10;;;0.63;;
22939;SDS011;11636;52.086;5.090;2022-09-27T11:03:48;2.95;;;0.60;;
22939;SDS011;11636;52.086;5.090;2022-09-27T11:06:25;4.10;;;0.82;;
22939;SDS011;11636;52.086;5.090;2022-09-27T11:09:09;2.65;;;0.65;;
22939;SDS011;11636;52.086;5.090;2022-09-27T11:12:12;5.47;;;0.65;;
22939;SDS011;11636;52.086;5.090;2022-09-27T11:14:40;3.63;;;0.68;;
22939;SDS011;11636;52.086;5.090;2022-09-27T11:17:18;5.90;;;1.00;;
22939;SDS011;11636;52.086;5.090;2022-09-27T11:20:14;3.90;;;0.70;;
22939;SDS011;11636;52.086;5.090;2022-09-27T11:25:57;5.80;;;0.98;;
22939;SDS011;11636;52.086;5.090;2022-09-27T11:34:28;5.18;;;0.70;;
22939;SDS011;11636;52.086;5.090;2022-09-27T11:37:21;3.97;;;0.65;;
22939;SDS011;11636;52.086;5.090;2022-09-27T11:46:10;4.68;;;0.88;;
22939;SDS011;11636;52.086;5.090;2022-09-27T12:00:20;3.33;;;1.10;;
22939;SDS011;11636;52.086;5.090;2022-09-27T12:06:02;3.53;;;1.20;;
22939;SDS011;11636;52.086;5.090;2022-09-27T12:08:52;7.38;;;1.40;;
22939;SDS011;11636;52.086;5.090;2022-09-27T12:11:41;3.63;;;0.70;;
22939;SDS011;11636;52.086;5.090;2022-09-27T12:17:06;5.95;;;0.73;;
22939;SDS011;11636;52.086;5.090;2022-09-27T12:19:46;3.38;;;0.60;;
22939;SDS011;11636;52.086;5.090;2022-09-27T12:22:37;2.58;;;0.63;;
22939;SDS011;11636;52.086;5.090;2022-09-27T12:25:25;2.97;;;0.68;;
22939;SDS011;11636;52.086;5.090;2022-09-27T12:31:01;8.15;;;3.65;;
22939;SDS011;11636;52.086;5.090;2022-09-27T12:34:10;7.78;;;3.25;;
22939;SDS011;11636;52.086;5.090;2022-09-27T12:45:40;3.10;;;0.90;;
22939;SDS011;11636;52.086;5.090;2022-09-27T12:51:16;4.22;;;0.95;;
22939;SDS011;11636;52.086;5.090;2022-09-27T12:56:55;4.03;;;0.90;;
22939;SDS011;11636;52.086;5.090;2022-09-27T13:13:55;0.88;;;0.40;;
22939;SDS011;11636;52.086;5.090;2022-09-27T13:16:42;2.50;;;0.50;;
22939;SDS011;11636;52.086;5.090;2022-09-27T13:22:54;1.33;;;0.30;;
22939;SDS011;11636;52.086;5.090;2022-09-27T13:31:09;2.25;;;0.80;;
22939;SDS011;11636;52.086;5.090;2022-09-27T13:33:44;1.38;;;0.30;;
22939;SDS011;11636;52.086;5.090;2022-09-27T13:47:17;2.05;;;0.40;;
22939;SDS011;11636;52.086;5.090;2022-09-27T13:52:45;2.67;;;0.40;;
22939;SDS011;11636;52.086;5.090;2022-09-27T13:55:38;2.42;;;0.40;;
22939;SDS011;11636;52.086;5.090;2022-09-27T13:58:31;4.90;;;1.00;;
22939;SDS011;11636;52.086;5.090;2022-09-27T14:01:32;1.67;;;0.50;;
22939;SDS011;11636;52.086;5.090;2022-09-27T14:04:16;7.10;;;0.60;;
22939;SDS011;11636;52.086;5.090;2022-09-27T14:06:50;3.17;;;0.50;;
22939;SDS011;11636;52.086;5.090;2022-09-27T14:09:30;2.97;;;0.50;;
22939;SDS011;11636;52.086;5.090;2022-09-27T14:11:59;3.53;;;0.60;;
22939;SDS011;11636;52.086;5.090;2022-09-27T14:14:36;2.13;;;0.50;;
22939;SDS011;11636;52.086;5.090;2022-09-27T14:17:05;2.00;;;0.47;;
22939;SDS011;11636;52.086;5.090;2022-09-27T14:19:39;1.75;;;0.50;;
22939;SDS011;11636;52.086;5.090;2022-09-27T14:22:16;1.92;;;0.52;;
22939;SDS011;11636;52.086;5.090;2022-09-27T14:24:54;1.60;;;0.38;;
22939;SDS011;11636;52.086;5.090;2022-09-27T14:27:33;1.50;;;0.47;;
22939;SDS011;11636;52.086;5.090;2022-09-27T14:32:51;1.45;;;0.55;;
22939;SDS011;11636;52.086;5.090;2022-09-27T14:35:46;1.47;;;0.40;;
22939;SDS011;11636;52.086;5.090;2022-09-27T14:38:40;1.10;;;0.30;;
22939;SDS011;11636;52.086;5.090;2022-09-27T14:41:07;0.75;;;0.30;;
22939;SDS011;11636;52.086;5.090;2022-09-27T14:43:42;0.80;;;0.30;;
22939;SDS011;11636;52.086;5.090;2022-09-27T14:46:24;1.23;;;0.40;;
22939;SDS011;11636;52.086;5.090;2022-09-27T14:51:50;2.35;;;0.50;;
22939;SDS011;11636;52.086;5.090;2022-09-27T14:54:28;2.80;;;0.65;;
22939;SDS011;11636;52.086;5.090;2022-09-27T14:56:57;1.33;;;0.40;;
22939;SDS011;11636;52.086;5.090;2022-09-27T14:59:29;1.42;;;0.40;;
22939;SDS011;11636;52.086;5.090;2022-09-27T15:02:10;2.67;;;0.60;;
22939;SDS011;11636;52.086;5.090;2022-09-27T15:04:51;2.28;;;0.60;;
22939;SDS011;11636;52.086;5.090;2022-09-27T15:07:25;1.35;;;0.50;;
22939;SDS011;11636;52.086;5.090;2022-09-27T15:09:59;1.80;;;0.60;;
22939;SDS011;11636;52.086;5.090;2022-09-27T15:12:26;2.80;;;0.60;;
22939;SDS011;11636;52.086;5.090;2022-09-27T15:15:00;1.85;;;0.52;;
22939;SDS011;11636;52.086;5.090;2022-09-27T15:17:27;1.73;;;0.55;;
22939;SDS011;11636;52.086;5.090;2022-09-27T15:20:02;1.77;;;0.47;;
22939;SDS011;11636;52.086;5.090;2022-09-27T15:22:50;2.70;;;0.50;;
22939;SDS011;11636;52.086;5.090;2022-09-27T15:25:27;1.25;;;0.40;;
22939;SDS011;11636;52.086;5.090;2022-09-27T15:30:38;2.10;;;0.70;;
22939;SDS011;11636;52.086;5.090;2022-09-27T15:33:22;2.17;;;0.77;;
22939;SDS011;11636;52.086;5.090;2022-09-27T15:36:04;3.00;;;0.80;;
22939;SDS011;11636;52.086;5.090;2022-09-27T15:38:40;3.00;;;0.95;;
22939;SDS011;11636;52.086;5.090;2022-09-27T15:41:16;2.42;;;0.52;;
22939;SDS011;11636;52.086;5.090;2022-09-27T15:43:51;1.33;;;0.50;;
22939;SDS011;11636;52.086;5.090;2022-09-27T15:46:27;2.40;;;1.00;;
22939;SDS011;11636;52.086;5.090;2022-09-27T15:54:17;1.42;;;0.50;;
22939;SDS011;11636;52.086;5.090;2022-09-27T15:56:51;5.63;;;2.08;;
22939;SDS011;11636;52.086;5.090;2022-09-27T15:59:28;13.48;;;2.08;;
22939;SDS011;11636;52.086;5.090;2022-09-27T16:02:09;8.50;;;1.80;;
22939;SDS011;11636;52.086;5.090;2022-09-27T16:04:41;5.68;;;1.60;;
22939;SDS011;11636;52.086;5.090;2022-09-27T16:07:14;4.07;;;1.35;;
22939;SDS011;11636;52.086;5.090;2022-09-27T16:09:49;5.18;;;1.10;;
22939;SDS011;11636;52.086;5.090;2022-09-27T16:12:23;5.32;;;1.50;;
22939;SDS011;11636;52.086;5.090;2022-09-27T16:14:52;4.40;;;1.80;;
22939;SDS011;11636;52.086;5.090;2022-09-27T16:17:25;3.88;;;1.73;;
22939;SDS011;11636;52.086;5.090;2022-09-27T16:19:52;5.45;;;2.20;;
22939;SDS011;11636;52.086;5.090;2022-09-27T16:22:25;6.03;;;2.25;;
22939;SDS011;11636;52.086;5.090;2022-09-27T16:24:53;5.63;;;2.30;;
22939;SDS011;11636;52.086;5.090;2022-09-27T16:27:25;6.15;;;2.17;;
22939;SDS011;11636;52.086;5.090;2022-09-27T16:29:59;9.00;;;2.40;;
22939;SDS011;11636;52.086;5.090;2022-09-27T16:32:26;6.25;;;2.10;;
22939;SDS011;11636;52.086;5.090;2022-09-27T16:34:53;5.18;;;2.08;;
22939;SDS011;11636;52.086;5.090;2022-09-27T16:37:26;5.03;;;2.10;;
22939;SDS011;11636;52.086;5.090;2022-09-27T16:39:55;5.70;;;2.42;;
22939;SDS011;11636;52.086;5.090;2022-09-27T16:42:22;4.93;;;2.33;;
22939;SDS011;11636;52.086;5.090;2022-09-27T16:44:55;4.82;;;1.80;;
22939;SDS011;11636;52.086;5.090;2022-09-27T16:47:22;4.20;;;1.95;;
22939;SDS011;11636;52.086;5.090;2022-09-27T16:49:49;3.10;;;1.73;;
22939;SDS011;11636;52.086;5.090;2022-09-27T16:52:41;2.92;;;1.58;;
22939;SDS011;11636;52.086;5.090;2022-09-27T16:55:19;3.80;;;1.98;;
22939;SDS011;11636;52.086;5.090;2022-09-27T16:57:49;4.38;;;1.90;;
22939;SDS011;11636;52.086;5.090;2022-09-27T17:00:16;6.60;;;3.10;;
22939;SDS011;11636;52.086;5.090;2022-09-27T17:02:50;7.00;;;2.47;;
22939;SDS011;11636;52.086;5.090;2022-09-27T17:05:18;5.57;;;2.13;;
22939;SDS011;11636;52.086;5.090;2022-09-27T17:07:51;4.57;;;1.60;;
22939;SDS011;11636;52.086;5.090;2022-09-27T17:10:19;4.80;;;1.80;;
22939;SDS011;11636;52.086;5.090;2022-09-27T17:12:47;5.28;;;1.80;;
22939;SDS011;11636;52.086;5.090;2022-09-27T17:15:20;7.40;;;1.88;;
22939;SDS011;11636;52.086;5.090;2022-09-27T17:17:53;6.88;;;2.58;;
22939;SDS011;11636;52.086;5.090;2022-09-27T17:20:27;5.60;;;2.30;;
22939;SDS011;11636;52.086;5.090;2022-09-27T17:22:54;4.63;;;1.60;;
22939;SDS011;11636;52.086;5.090;2022-09-27T17:25:21;6.72;;;1.80;;
22939;SDS011;11636;52.086;5.090;2022-09-27T17:27:55;8.05;;;1.83;;
22939;SDS011;11636;52.086;5.090;2022-09-27T17:30:22;5.55;;;2.00;;
22939;SDS011;11636;52.086;5.090;2022-09-27T17:32:49;6.82;;;2.17;;
22939;SDS011;11636;52.086;5.090;2022-09-27T17:35:22;5.63;;;1.80;;
22939;SDS011;11636;52.086;5.090;2022-09-27T17:37:49;4.47;;;1.75;;
22939;SDS011;11636;52.086;5.090;2022-09-27T17:40:23;4.00;;;1.60;;
22939;SDS011;11636;52.086;5.090;2022-09-27T17:42:50;4.60;;;1.42;;
22939;SDS011;11636;52.086;5.090;2022-09-27T17:45:17;4.35;;;1.55;;
22939;SDS011;11636;52.086;5.090;2022-09-27T17:47:51;4.18;;;1.40;;
22939;SDS011;11636;52.086;5.090;2022-09-27T17:50:46;2.57;;;1.10;;
22939;SDS011;11636;52.086;5.090;2022-09-27T17:53:21;3.10;;;1.35;;
22939;SDS011;11636;52.086;5.090;2022-09-27T17:55:48;2.90;;;1.00;;
22939;SDS011;11636;52.086;5.090;2022-09-27T17:58:21;2.85;;;1.13;;
22939;SDS011;11636;52.086;5.090;2022-09-27T18:00:48;3.60;;;1.55;;
22939;SDS011;11636;52.086;5.090;2022-09-27T18:03:33;2.90;;;1.10;;
22939;SDS011;11636;52.086;5.090;2022-09-27T18:06:06;2.72;;;1.10;;
22939;SDS011;11636;52.086;5.090;2022-09-27T18:08:40;2.15;;;0.85;;
22939;SDS011;11636;52.086;5.090;2022-09-27T18:11:15;2.10;;;0.75;;
22939;SDS011;11636;52.086;5.090;2022-09-27T18:13:52;3.58;;;1.58;;
22939;SDS011;11636;52.086;5.090;2022-09-27T18:16:26;3.08;;;1.20;;
22939;SDS011;11636;52.086;5.090;2022-09-27T18:19:05;2.97;;;1.17;;
22939;SDS011;11636;52.086;5.090;2022-09-27T18:21:33;2.75;;;1.30;;
22939;SDS011;11636;52.086;5.090;2022-09-27T18:24:00;2.97;;;1.40;;
22939;SDS011;11636;52.086;5.090;2022-09-27T18:26:37;2.35;;;1.17;;
22939;SDS011;11636;52.086;5.090;2022-09-27T18:29:12;2.15;;;1.08;;
22939;SDS011;11636;52.086;5.090;2022-09-27T18:31:41;2.42;;;1.33;;
22939;SDS011;11636;52.086;5.090;2022-09-27T18:34:18;2.63;;;1.30;;
22939;SDS011;11636;52.086;5.090;2022-09-27T18:36:45;2.42;;;1.17;;
22939;SDS011;11636;52.086;5.090;2022-09-27T18:39:15;3.97;;;1.60;;
22939;SDS011;11636;52.086;5.090;2022-09-27T18:41:50;3.20;;;1.50;;
22939;SDS011;11636;52.086;5.090;2022-09-27T18:44:25;2.95;;;1.30;;
22939;SDS011;11636;52.086;5.090;2022-09-27T18:46:52;3.40;;;1.80;;
22939;SDS011;11636;52.086;5.090;2022-09-27T18:49:25;3.65;;;1.67;;
22939;SDS011;11636;52.086;5.090;2022-09-27T18:51:59;3.72;;;2.10;;
22939;SDS011;11636;52.086;5.090;2022-09-27T18:54:28;5.32;;;2.13;;
22939;SDS011;11636;52.086;5.090;2022-09-27T18:57:01;4.97;;;2.45;;